sensor_id;sensor_type;location;lat;lon;timestamp;P1;durP1;ratioP1;P2;durP2;ratioP2
75216;SDS011;63800;51.972;5.682;2022-12-26T00:01:08;39.80;;;16.10;;
75216;SDS011;63800;51.972;5.682;2022-12-26T00:03:36;33.08;;;14.65;;
75216;SDS011;63800;51.972;5.682;2022-12-26T00:06:02;40.65;;;17.08;;
75216;SDS011;63800;51.972;5.682;2022-12-26T00:08:28;37.35;;;15.98;;
75216;SDS011;63800;51.972;5.682;2022-12-26T00:10:53;38.33;;;16.42;;
75216;SDS011;63800;51.972;5.682;2022-12-26T00:13:19;43.83;;;18.70;;
75216;SDS011;63800;51.972;5.682;2022-12-26T00:15:44;40.15;;;16.00;;
75216;SDS011;63800;51.972;5.682;2022-12-26T00:18:10;48.88;;;18.73;;
75216;SDS011;63800;51.972;5.682;2022-12-26T00:20:35;45.08;;;18.00;;
75216;SDS011;63800;51.972;5.682;2022-12-26T00:23:00;41.70;;;17.27;;
75216;SDS011;63800;51.972;5.682;2022-12-26T00:25:26;50.67;;;19.17;;
75216;SDS011;63800;51.972;5.682;2022-12-26T00:27:51;50.20;;;19.17;;
75216;SDS011;63800;51.972;5.682;2022-12-26T00:30:17;46.25;;;18.80;;
75216;SDS011;63800;51.972;5.682;2022-12-26T00:32:43;55.25;;;18.30;;
75216;SDS011;63800;51.972;5.682;2022-12-26T00:35:09;48.40;;;19.70;;
75216;SDS011;63800;51.972;5.682;2022-12-26T00:37:34;55.15;;;19.88;;
75216;SDS011;63800;51.972;5.682;2022-12-26T00:40:03;54.50;;;18.85;;
75216;SDS011;63800;51.972;5.682;2022-12-26T00:42:29;53.35;;;20.48;;
75216;SDS011;63800;51.972;5.682;2022-12-26T00:44:54;59.88;;;20.55;;
75216;SDS011;63800;51.972;5.682;2022-12-26T00:47:19;49.45;;;20.27;;
75216;SDS011;63800;51.972;5.682;2022-12-26T00:49:45;45.50;;;18.55;;
75216;SDS011;63800;51.972;5.682;2022-12-26T00:52:10;48.53;;;19.27;;
75216;SDS011;63800;51.972;5.682;2022-12-26T00:54:36;46.78;;;17.88;;
75216;SDS011;63800;51.972;5.682;2022-12-26T00:57:01;50.03;;;20.77;;
75216;SDS011;63800;51.972;5.682;2022-12-26T00:59:27;46.40;;;19.25;;
75216;SDS011;63800;51.972;5.682;2022-12-26T01:01:52;45.13;;;19.63;;
75216;SDS011;63800;51.972;5.682;2022-12-26T01:04:17;40.92;;;18.00;;
75216;SDS011;63800;51.972;5.682;2022-12-26T01:06:43;43.20;;;17.35;;
75216;SDS011;63800;51.972;5.682;2022-12-26T01:09:08;45.50;;;19.40;;
75216;SDS011;63800;51.972;5.682;2022-12-26T01:11:36;46.42;;;20.08;;
75216;SDS011;63800;51.972;5.682;2022-12-26T01:14:04;42.20;;;18.88;;
75216;SDS011;63800;51.972;5.682;2022-12-26T01:16:35;46.17;;;20.17;;
75216;SDS011;63800;51.972;5.682;2022-12-26T01:19:02;46.65;;;19.90;;
75216;SDS011;63800;51.972;5.682;2022-12-26T01:21:27;44.33;;;18.75;;
75216;SDS011;63800;51.972;5.682;2022-12-26T01:23:53;42.85;;;18.45;;
75216;SDS011;63800;51.972;5.682;2022-12-26T01:26:19;45.97;;;19.17;;
75216;SDS011;63800;51.972;5.682;2022-12-26T01:28:44;47.67;;;18.73;;
75216;SDS011;63800;51.972;5.682;2022-12-26T01:31:10;46.75;;;20.23;;
75216;SDS011;63800;51.972;5.682;2022-12-26T01:33:35;43.50;;;18.75;;
75216;SDS011;63800;51.972;5.682;2022-12-26T01:36:01;43.80;;;20.08;;
75216;SDS011;63800;51.972;5.682;2022-12-26T01:38:26;43.22;;;18.63;;
75216;SDS011;63800;51.972;5.682;2022-12-26T01:40:52;38.95;;;17.30;;
75216;SDS011;63800;51.972;5.682;2022-12-26T01:49:06;41.88;;;17.88;;
75216;SDS011;63800;51.972;5.682;2022-12-26T01:51:46;40.13;;;17.95;;
75216;SDS011;63800;51.972;5.682;2022-12-26T01:54:17;38.45;;;17.13;;
75216;SDS011;63800;51.972;5.682;2022-12-26T01:56:43;35.35;;;16.90;;
75216;SDS011;63800;51.972;5.682;2022-12-26T01:59:18;34.33;;;16.05;;
75216;SDS011;63800;51.972;5.682;2022-12-26T02:01:48;40.28;;;18.58;;
75216;SDS011;63800;51.972;5.682;2022-12-26T02:04:16;40.15;;;18.38;;
75216;SDS011;63800;51.972;5.682;2022-12-26T02:07:03;33.33;;;16.20;;
75216;SDS011;63800;51.972;5.682;2022-12-26T02:09:29;38.25;;;16.98;;
75216;SDS011;63800;51.972;5.682;2022-12-26T02:12:05;37.42;;;17.35;;
75216;SDS011;63800;51.972;5.682;2022-12-26T02:14:35;35.17;;;16.02;;
75216;SDS011;63800;51.972;5.682;2022-12-26T02:17:02;32.95;;;15.65;;
75216;SDS011;63800;51.972;5.682;2022-12-26T02:19:32;36.60;;;16.38;;
75216;SDS011;63800;51.972;5.682;2022-12-26T02:32:57;34.15;;;15.85;;
75216;SDS011;63800;51.972;5.682;2022-12-26T02:43:59;40.47;;;18.42;;
75216;SDS011;63800;51.972;5.682;2022-12-26T02:55:40;37.40;;;17.38;;
75216;SDS011;63800;51.972;5.682;2022-12-26T03:01:47;32.78;;;16.70;;
75216;SDS011;63800;51.972;5.682;2022-12-26T03:04:37;36.22;;;18.58;;
75216;SDS011;63800;51.972;5.682;2022-12-26T03:07:25;36.15;;;18.38;;
75216;SDS011;63800;51.972;5.682;2022-12-26T03:10:24;34.40;;;17.30;;
75216;SDS011;63800;51.972;5.682;2022-12-26T03:13:14;36.00;;;18.25;;
75216;SDS011;63800;51.972;5.682;2022-12-26T03:16:26;35.75;;;18.48;;
75216;SDS011;63800;51.972;5.682;2022-12-26T03:18:54;35.03;;;18.42;;
75216;SDS011;63800;51.972;5.682;2022-12-26T03:21:24;38.70;;;20.42;;
75216;SDS011;63800;51.972;5.682;2022-12-26T03:23:52;43.97;;;21.85;;
75216;SDS011;63800;51.972;5.682;2022-12-26T03:26:21;44.65;;;23.88;;
75216;SDS011;63800;51.972;5.682;2022-12-26T03:29:06;39.80;;;20.20;;
75216;SDS011;63800;51.972;5.682;2022-12-26T03:31:51;39.38;;;20.77;;
75216;SDS011;63800;51.972;5.682;2022-12-26T03:34:17;42.15;;;21.13;;
75216;SDS011;63800;51.972;5.682;2022-12-26T03:37:01;42.75;;;22.75;;
75216;SDS011;63800;51.972;5.682;2022-12-26T03:42:36;36.40;;;18.00;;
75216;SDS011;63800;51.972;5.682;2022-12-26T03:48:55;37.90;;;19.50;;
75216;SDS011;63800;51.972;5.682;2022-12-26T03:51:52;42.33;;;21.10;;
75216;SDS011;63800;51.972;5.682;2022-12-26T03:54:50;44.78;;;22.92;;
75216;SDS011;63800;51.972;5.682;2022-12-26T03:57:49;43.28;;;19.45;;
75216;SDS011;63800;51.972;5.682;2022-12-26T04:00:37;42.17;;;21.45;;
75216;SDS011;63800;51.972;5.682;2022-12-26T04:03:24;42.15;;;20.80;;
75216;SDS011;63800;51.972;5.682;2022-12-26T04:06:13;41.95;;;20.92;;
75216;SDS011;63800;51.972;5.682;2022-12-26T04:09:05;44.50;;;22.50;;
75216;SDS011;63800;51.972;5.682;2022-12-26T04:12:13;45.90;;;22.17;;
75216;SDS011;63800;51.972;5.682;2022-12-26T04:15:05;43.65;;;20.75;;
75216;SDS011;63800;51.972;5.682;2022-12-26T04:18:08;44.67;;;21.27;;
75216;SDS011;63800;51.972;5.682;2022-12-26T04:21:08;46.00;;;22.02;;
75216;SDS011;63800;51.972;5.682;2022-12-26T04:23:59;44.58;;;20.70;;
75216;SDS011;63800;51.972;5.682;2022-12-26T04:26:50;43.80;;;20.90;;
75216;SDS011;63800;51.972;5.682;2022-12-26T04:29:39;41.40;;;21.70;;
75216;SDS011;63800;51.972;5.682;2022-12-26T04:35:36;46.13;;;21.73;;
75216;SDS011;63800;51.972;5.682;2022-12-26T04:38:28;54.22;;;25.52;;
75216;SDS011;63800;51.972;5.682;2022-12-26T04:41:17;52.20;;;24.10;;
75216;SDS011;63800;51.972;5.682;2022-12-26T04:44:04;39.58;;;20.15;;
75216;SDS011;63800;51.972;5.682;2022-12-26T04:46:35;42.58;;;20.77;;
75216;SDS011;63800;51.972;5.682;2022-12-26T04:49:04;42.50;;;20.45;;
75216;SDS011;63800;51.972;5.682;2022-12-26T04:51:50;44.95;;;20.40;;
75216;SDS011;63800;51.972;5.682;2022-12-26T04:54:16;42.03;;;20.73;;
75216;SDS011;63800;51.972;5.682;2022-12-26T04:56:42;42.17;;;18.73;;
75216;SDS011;63800;51.972;5.682;2022-12-26T04:59:07;37.45;;;20.58;;
75216;SDS011;63800;51.972;5.682;2022-12-26T05:01:33;38.70;;;20.08;;
75216;SDS011;63800;51.972;5.682;2022-12-26T05:04:17;32.25;;;18.23;;
75216;SDS011;63800;51.972;5.682;2022-12-26T05:07:03;32.80;;;18.23;;
75216;SDS011;63800;51.972;5.682;2022-12-26T05:09:51;33.55;;;18.05;;
75216;SDS011;63800;51.972;5.682;2022-12-26T05:12:18;34.85;;;16.67;;
75216;SDS011;63800;51.972;5.682;2022-12-26T05:14:43;28.20;;;15.57;;
75216;SDS011;63800;51.972;5.682;2022-12-26T05:17:09;26.95;;;14.65;;
75216;SDS011;63800;51.972;5.682;2022-12-26T05:19:55;24.98;;;14.13;;
75216;SDS011;63800;51.972;5.682;2022-12-26T05:22:39;24.35;;;13.82;;
75216;SDS011;63800;51.972;5.682;2022-12-26T05:25:26;25.00;;;14.23;;
75216;SDS011;63800;51.972;5.682;2022-12-26T05:28:14;24.58;;;13.85;;
75216;SDS011;63800;51.972;5.682;2022-12-26T05:30:59;22.00;;;12.73;;
75216;SDS011;63800;51.972;5.682;2022-12-26T05:33:25;19.25;;;11.43;;
75216;SDS011;63800;51.972;5.682;2022-12-26T05:36:10;18.38;;;11.10;;
75216;SDS011;63800;51.972;5.682;2022-12-26T05:38:36;16.98;;;10.52;;
75216;SDS011;63800;51.972;5.682;2022-12-26T05:41:02;18.25;;;11.40;;
75216;SDS011;63800;51.972;5.682;2022-12-26T05:43:28;22.58;;;13.48;;
75216;SDS011;63800;51.972;5.682;2022-12-26T05:45:53;25.58;;;14.88;;
75216;SDS011;63800;51.972;5.682;2022-12-26T05:48:19;22.83;;;13.40;;
75216;SDS011;63800;51.972;5.682;2022-12-26T05:50:44;21.92;;;12.85;;
75216;SDS011;63800;51.972;5.682;2022-12-26T05:53:10;19.33;;;11.90;;
75216;SDS011;63800;51.972;5.682;2022-12-26T05:55:35;21.83;;;13.43;;
75216;SDS011;63800;51.972;5.682;2022-12-26T05:58:01;17.25;;;11.35;;
75216;SDS011;63800;51.972;5.682;2022-12-26T06:00:27;20.65;;;11.98;;
75216;SDS011;63800;51.972;5.682;2022-12-26T06:02:54;20.52;;;13.18;;
75216;SDS011;63800;51.972;5.682;2022-12-26T06:05:19;19.30;;;11.63;;
75216;SDS011;63800;51.972;5.682;2022-12-26T06:07:45;18.67;;;10.73;;
75216;SDS011;63800;51.972;5.682;2022-12-26T06:10:11;13.05;;;8.73;;
75216;SDS011;63800;51.972;5.682;2022-12-26T06:12:36;15.27;;;8.93;;
75216;SDS011;63800;51.972;5.682;2022-12-26T06:15:02;12.32;;;7.55;;
75216;SDS011;63800;51.972;5.682;2022-12-26T06:17:28;13.98;;;8.45;;
75216;SDS011;63800;51.972;5.682;2022-12-26T06:19:53;13.57;;;8.05;;
75216;SDS011;63800;51.972;5.682;2022-12-26T06:22:19;10.52;;;6.88;;
75216;SDS011;63800;51.972;5.682;2022-12-26T06:24:44;11.40;;;7.00;;
75216;SDS011;63800;51.972;5.682;2022-12-26T06:27:10;12.00;;;6.95;;
75216;SDS011;63800;51.972;5.682;2022-12-26T06:29:35;11.13;;;6.78;;
75216;SDS011;63800;51.972;5.682;2022-12-26T06:32:01;13.43;;;7.25;;
75216;SDS011;63800;51.972;5.682;2022-12-26T06:34:27;11.32;;;7.65;;
75216;SDS011;63800;51.972;5.682;2022-12-26T06:36:52;11.98;;;6.78;;
75216;SDS011;63800;51.972;5.682;2022-12-26T06:39:19;11.30;;;7.50;;
75216;SDS011;63800;51.972;5.682;2022-12-26T06:41:45;12.65;;;7.18;;
75216;SDS011;63800;51.972;5.682;2022-12-26T06:44:10;11.10;;;7.53;;
75216;SDS011;63800;51.972;5.682;2022-12-26T06:46:36;13.25;;;7.97;;
75216;SDS011;63800;51.972;5.682;2022-12-26T06:49:01;15.25;;;7.93;;
75216;SDS011;63800;51.972;5.682;2022-12-26T06:51:33;14.00;;;7.47;;
75216;SDS011;63800;51.972;5.682;2022-12-26T06:53:59;16.60;;;8.90;;
75216;SDS011;63800;51.972;5.682;2022-12-26T06:56:29;15.05;;;8.18;;
75216;SDS011;63800;51.972;5.682;2022-12-26T06:58:59;14.38;;;7.72;;
75216;SDS011;63800;51.972;5.682;2022-12-26T07:01:31;13.20;;;7.85;;
75216;SDS011;63800;51.972;5.682;2022-12-26T07:03:58;12.63;;;7.35;;
75216;SDS011;63800;51.972;5.682;2022-12-26T07:06:25;14.15;;;7.90;;
75216;SDS011;63800;51.972;5.682;2022-12-26T07:08:54;15.38;;;8.32;;
75216;SDS011;63800;51.972;5.682;2022-12-26T07:11:23;14.70;;;7.78;;
75216;SDS011;63800;51.972;5.682;2022-12-26T07:13:51;16.15;;;8.32;;
75216;SDS011;63800;51.972;5.682;2022-12-26T07:16:18;15.48;;;8.75;;
75216;SDS011;63800;51.972;5.682;2022-12-26T07:18:43;14.10;;;8.52;;
75216;SDS011;63800;51.972;5.682;2022-12-26T07:21:10;17.15;;;9.70;;
75216;SDS011;63800;51.972;5.682;2022-12-26T07:23:37;13.57;;;9.20;;
75216;SDS011;63800;51.972;5.682;2022-12-26T07:26:03;13.98;;;8.10;;
75216;SDS011;63800;51.972;5.682;2022-12-26T07:28:29;16.67;;;9.27;;
75216;SDS011;63800;51.972;5.682;2022-12-26T07:30:55;15.77;;;9.70;;
75216;SDS011;63800;51.972;5.682;2022-12-26T07:33:21;15.10;;;9.10;;
75216;SDS011;63800;51.972;5.682;2022-12-26T07:35:47;17.30;;;10.15;;
75216;SDS011;63800;51.972;5.682;2022-12-26T07:38:13;17.70;;;11.25;;
75216;SDS011;63800;51.972;5.682;2022-12-26T07:40:38;20.27;;;12.40;;
75216;SDS011;63800;51.972;5.682;2022-12-26T07:43:04;18.23;;;10.68;;
75216;SDS011;63800;51.972;5.682;2022-12-26T07:45:29;19.63;;;11.65;;
75216;SDS011;63800;51.972;5.682;2022-12-26T07:47:55;17.88;;;11.80;;
75216;SDS011;63800;51.972;5.682;2022-12-26T07:50:22;15.35;;;9.75;;
75216;SDS011;63800;51.972;5.682;2022-12-26T07:52:48;14.20;;;8.98;;
75216;SDS011;63800;51.972;5.682;2022-12-26T07:55:14;14.00;;;8.77;;
75216;SDS011;63800;51.972;5.682;2022-12-26T07:57:39;16.15;;;8.52;;
75216;SDS011;63800;51.972;5.682;2022-12-26T08:00:05;16.27;;;8.52;;
75216;SDS011;63800;51.972;5.682;2022-12-26T08:02:31;14.98;;;8.85;;
75216;SDS011;63800;51.972;5.682;2022-12-26T08:04:56;17.38;;;9.60;;
75216;SDS011;63800;51.972;5.682;2022-12-26T08:07:22;15.00;;;9.60;;
75216;SDS011;63800;51.972;5.682;2022-12-26T08:09:47;13.23;;;9.30;;
75216;SDS011;63800;51.972;5.682;2022-12-26T08:12:13;15.23;;;9.18;;
75216;SDS011;63800;51.972;5.682;2022-12-26T08:14:39;14.75;;;9.38;;
75216;SDS011;63800;51.972;5.682;2022-12-26T08:17:05;14.52;;;8.73;;
75216;SDS011;63800;51.972;5.682;2022-12-26T08:19:31;11.77;;;8.68;;
75216;SDS011;63800;51.972;5.682;2022-12-26T08:21:56;12.82;;;8.25;;
75216;SDS011;63800;51.972;5.682;2022-12-26T08:24:22;13.25;;;8.18;;
75216;SDS011;63800;51.972;5.682;2022-12-26T08:26:47;12.38;;;8.43;;
75216;SDS011;63800;51.972;5.682;2022-12-26T08:29:12;11.63;;;8.10;;
75216;SDS011;63800;51.972;5.682;2022-12-26T08:31:38;11.88;;;7.82;;
75216;SDS011;63800;51.972;5.682;2022-12-26T08:34:03;11.73;;;7.07;;
75216;SDS011;63800;51.972;5.682;2022-12-26T08:36:29;7.95;;;5.38;;
75216;SDS011;63800;51.972;5.682;2022-12-26T08:38:54;11.85;;;6.13;;
75216;SDS011;63800;51.972;5.682;2022-12-26T08:41:21;7.65;;;5.07;;
75216;SDS011;63800;51.972;5.682;2022-12-26T08:43:47;10.55;;;6.28;;
75216;SDS011;63800;51.972;5.682;2022-12-26T08:46:14;7.03;;;5.85;;
75216;SDS011;63800;51.972;5.682;2022-12-26T08:48:39;12.77;;;6.28;;
75216;SDS011;63800;51.972;5.682;2022-12-26T08:51:06;12.05;;;6.60;;
75216;SDS011;63800;51.972;5.682;2022-12-26T08:53:35;9.77;;;6.75;;
75216;SDS011;63800;51.972;5.682;2022-12-26T08:56:01;13.60;;;7.53;;
75216;SDS011;63800;51.972;5.682;2022-12-26T08:58:29;10.98;;;6.22;;
75216;SDS011;63800;51.972;5.682;2022-12-26T09:00:55;11.95;;;6.72;;
75216;SDS011;63800;51.972;5.682;2022-12-26T09:03:29;9.13;;;5.93;;
75216;SDS011;63800;51.972;5.682;2022-12-26T09:05:57;12.68;;;7.65;;
75216;SDS011;63800;51.972;5.682;2022-12-26T09:08:23;13.52;;;8.80;;
75216;SDS011;63800;51.972;5.682;2022-12-26T09:10:49;10.75;;;6.00;;
75216;SDS011;63800;51.972;5.682;2022-12-26T09:13:14;9.13;;;5.15;;
75216;SDS011;63800;51.972;5.682;2022-12-26T09:15:40;11.55;;;5.35;;
75216;SDS011;63800;51.972;5.682;2022-12-26T09:18:06;6.57;;;4.45;;
75216;SDS011;63800;51.972;5.682;2022-12-26T09:20:32;7.47;;;4.60;;
75216;SDS011;63800;51.972;5.682;2022-12-26T09:22:57;7.93;;;4.95;;
75216;SDS011;63800;51.972;5.682;2022-12-26T09:25:24;6.85;;;4.07;;
75216;SDS011;63800;51.972;5.682;2022-12-26T09:27:50;5.45;;;3.80;;
75216;SDS011;63800;51.972;5.682;2022-12-26T09:30:18;7.15;;;3.67;;
75216;SDS011;63800;51.972;5.682;2022-12-26T09:32:44;6.18;;;3.90;;
75216;SDS011;63800;51.972;5.682;2022-12-26T09:35:10;9.73;;;3.97;;
75216;SDS011;63800;51.972;5.682;2022-12-26T09:37:35;6.30;;;3.65;;
75216;SDS011;63800;51.972;5.682;2022-12-26T09:40:01;4.43;;;3.80;;
75216;SDS011;63800;51.972;5.682;2022-12-26T09:45:03;7.00;;;4.35;;
75216;SDS011;63800;51.972;5.682;2022-12-26T09:50:03;9.38;;;3.38;;
75216;SDS011;63800;51.972;5.682;2022-12-26T09:57:49;6.75;;;4.07;;
75216;SDS011;63800;51.972;5.682;2022-12-26T10:00:49;5.47;;;4.20;;
75216;SDS011;63800;51.972;5.682;2022-12-26T10:03:12;6.40;;;3.40;;
75216;SDS011;63800;51.972;5.682;2022-12-26T10:05:40;7.22;;;3.33;;
75216;SDS011;63800;51.972;5.682;2022-12-26T10:08:33;4.95;;;2.70;;
75216;SDS011;63800;51.972;5.682;2022-12-26T10:14:20;7.15;;;3.40;;
75216;SDS011;63800;51.972;5.682;2022-12-26T10:17:17;10.73;;;3.33;;
75216;SDS011;63800;51.972;5.682;2022-12-26T10:23:06;5.45;;;3.38;;
75216;SDS011;63800;51.972;5.682;2022-12-26T10:31:35;5.78;;;3.03;;
75216;SDS011;63800;51.972;5.682;2022-12-26T10:39:22;7.13;;;3.00;;
75216;SDS011;63800;51.972;5.682;2022-12-26T10:41:53;10.27;;;2.70;;
75216;SDS011;63800;51.972;5.682;2022-12-26T10:44:23;9.25;;;3.10;;
75216;SDS011;63800;51.972;5.682;2022-12-26T10:49:41;8.93;;;2.45;;
75216;SDS011;63800;51.972;5.682;2022-12-26T10:52:09;5.97;;;2.08;;
75216;SDS011;63800;51.972;5.682;2022-12-26T10:54:36;10.60;;;2.63;;
75216;SDS011;63800;51.972;5.682;2022-12-26T10:57:02;9.77;;;2.67;;
75216;SDS011;63800;51.972;5.682;2022-12-26T10:59:40;7.72;;;2.20;;
75216;SDS011;63800;51.972;5.682;2022-12-26T11:02:21;7.65;;;2.05;;
75216;SDS011;63800;51.972;5.682;2022-12-26T11:07:32;10.10;;;2.83;;
75216;SDS011;63800;51.972;5.682;2022-12-26T11:10:18;6.35;;;2.63;;
75216;SDS011;63800;51.972;5.682;2022-12-26T11:12:50;8.63;;;2.00;;
75216;SDS011;63800;51.972;5.682;2022-12-26T11:23:44;8.82;;;2.60;;
75216;SDS011;63800;51.972;5.682;2022-12-26T11:26:25;11.65;;;2.78;;
75216;SDS011;63800;51.972;5.682;2022-12-26T11:31:58;5.10;;;1.90;;
75216;SDS011;63800;51.972;5.682;2022-12-26T11:34:32;7.90;;;2.17;;
75216;SDS011;63800;51.972;5.682;2022-12-26T11:39:50;5.30;;;2.47;;
75216;SDS011;63800;51.972;5.682;2022-12-26T11:42:17;9.60;;;2.72;;
75216;SDS011;63800;51.972;5.682;2022-12-26T11:44:45;10.40;;;2.78;;
75216;SDS011;63800;51.972;5.682;2022-12-26T11:47:16;8.27;;;2.22;;
75216;SDS011;63800;51.972;5.682;2022-12-26T11:52:44;7.45;;;1.80;;
75216;SDS011;63800;51.972;5.682;2022-12-26T12:00:33;4.60;;;1.27;;
75216;SDS011;63800;51.972;5.682;2022-12-26T12:03:01;5.68;;;1.80;;
75216;SDS011;63800;51.972;5.682;2022-12-26T12:05:44;6.18;;;1.80;;
75216;SDS011;63800;51.972;5.682;2022-12-26T12:08:29;5.28;;;1.75;;
75216;SDS011;63800;51.972;5.682;2022-12-26T12:13:49;4.07;;;1.58;;
75216;SDS011;63800;51.972;5.682;2022-12-26T12:19:12;4.72;;;1.30;;
75216;SDS011;63800;51.972;5.682;2022-12-26T12:25:16;6.47;;;1.58;;
75216;SDS011;63800;51.972;5.682;2022-12-26T12:28:01;6.47;;;1.30;;
75216;SDS011;63800;51.972;5.682;2022-12-26T12:30:47;4.85;;;1.35;;
75216;SDS011;63800;51.972;5.682;2022-12-26T12:36:21;6.10;;;1.88;;
75216;SDS011;63800;51.972;5.682;2022-12-26T12:52:12;4.82;;;1.70;;
75216;SDS011;63800;51.972;5.682;2022-12-26T12:54:52;7.47;;;2.03;;
75216;SDS011;63800;51.972;5.682;2022-12-26T13:00:15;8.30;;;1.88;;
75216;SDS011;63800;51.972;5.682;2022-12-26T13:11:27;6.30;;;1.60;;
75216;SDS011;63800;51.972;5.682;2022-12-26T13:16:40;3.03;;;1.63;;
75216;SDS011;63800;51.972;5.682;2022-12-26T13:19:17;4.82;;;1.60;;
75216;SDS011;63800;51.972;5.682;2022-12-26T13:22:03;5.22;;;1.65;;
75216;SDS011;63800;51.972;5.682;2022-12-26T13:24:32;2.85;;;1.80;;
75216;SDS011;63800;51.972;5.682;2022-12-26T13:32:01;3.30;;;1.52;;
75216;SDS011;63800;51.972;5.682;2022-12-26T13:34:28;4.95;;;1.65;;
75216;SDS011;63800;51.972;5.682;2022-12-26T13:36:56;3.45;;;1.40;;
75216;SDS011;63800;51.972;5.682;2022-12-26T13:44:47;4.95;;;1.63;;
75216;SDS011;63800;51.972;5.682;2022-12-26T13:47:31;3.78;;;1.50;;
75216;SDS011;63800;51.972;5.682;2022-12-26T13:53:22;5.47;;;2.40;;
75216;SDS011;63800;51.972;5.682;2022-12-26T13:56:02;4.82;;;1.80;;
75216;SDS011;63800;51.972;5.682;2022-12-26T13:58:54;5.28;;;1.40;;
75216;SDS011;63800;51.972;5.682;2022-12-26T14:01:47;3.85;;;1.55;;
75216;SDS011;63800;51.972;5.682;2022-12-26T14:04:33;2.80;;;1.42;;
75216;SDS011;63800;51.972;5.682;2022-12-26T14:07:18;7.03;;;1.80;;
75216;SDS011;63800;51.972;5.682;2022-12-26T14:09:53;4.28;;;2.10;;
75216;SDS011;63800;51.972;5.682;2022-12-26T14:15:31;7.18;;;2.03;;
75216;SDS011;63800;51.972;5.682;2022-12-26T14:31:48;5.00;;;2.45;;
75216;SDS011;63800;51.972;5.682;2022-12-26T14:43:08;7.85;;;2.30;;
75216;SDS011;63800;51.972;5.682;2022-12-26T14:45:47;4.57;;;2.22;;
75216;SDS011;63800;51.972;5.682;2022-12-26T14:50:43;3.60;;;1.70;;
75216;SDS011;63800;51.972;5.682;2022-12-26T15:03:40;4.72;;;1.92;;
75216;SDS011;63800;51.972;5.682;2022-12-26T15:09:03;4.05;;;1.90;;
75216;SDS011;63800;51.972;5.682;2022-12-26T15:25:13;83.20;;;74.40;;
75216;SDS011;63800;51.972;5.682;2022-12-26T15:33:45;3.33;;;1.73;;
75216;SDS011;63800;51.972;5.682;2022-12-26T15:39:00;4.63;;;2.00;;
75216;SDS011;63800;51.972;5.682;2022-12-26T15:44:47;5.78;;;2.10;;
75216;SDS011;63800;51.972;5.682;2022-12-26T15:48:02;7.80;;;2.45;;
75216;SDS011;63800;51.972;5.682;2022-12-26T15:50:26;5.43;;;2.17;;
75216;SDS011;63800;51.972;5.682;2022-12-26T16:01:34;4.25;;;2.20;;
75216;SDS011;63800;51.972;5.682;2022-12-26T16:04:19;6.85;;;2.30;;
75216;SDS011;63800;51.972;5.682;2022-12-26T16:07:05;13.73;;;10.13;;
75216;SDS011;63800;51.972;5.682;2022-12-26T16:09:40;50.90;;;36.87;;
75216;SDS011;63800;51.972;5.682;2022-12-26T16:12:24;8.55;;;5.38;;
75216;SDS011;63800;51.972;5.682;2022-12-26T16:15:25;9.18;;;4.15;;
75216;SDS011;63800;51.972;5.682;2022-12-26T16:17:45;4.30;;;2.97;;
75216;SDS011;63800;51.972;5.682;2022-12-26T16:20:30;6.38;;;3.05;;
75216;SDS011;63800;51.972;5.682;2022-12-26T16:23:19;5.30;;;2.85;;
75216;SDS011;63800;51.972;5.682;2022-12-26T16:25:47;4.90;;;2.53;;
75216;SDS011;63800;51.972;5.682;2022-12-26T16:28:22;5.68;;;2.40;;
75216;SDS011;63800;51.972;5.682;2022-12-26T16:30:51;7.90;;;2.60;;
75216;SDS011;63800;51.972;5.682;2022-12-26T16:33:16;8.15;;;3.60;;
75216;SDS011;63800;51.972;5.682;2022-12-26T16:35:43;8.40;;;3.25;;
75216;SDS011;63800;51.972;5.682;2022-12-26T16:38:16;10.52;;;3.40;;
75216;SDS011;63800;51.972;5.682;2022-12-26T16:40:47;5.22;;;3.33;;
75216;SDS011;63800;51.972;5.682;2022-12-26T16:45:47;6.15;;;3.20;;
75216;SDS011;63800;51.972;5.682;2022-12-26T16:48:15;7.90;;;4.32;;
75216;SDS011;63800;51.972;5.682;2022-12-26T16:50:53;6.53;;;3.53;;
75216;SDS011;63800;51.972;5.682;2022-12-26T16:58:49;10.35;;;3.72;;
75216;SDS011;63800;51.972;5.682;2022-12-26T17:01:21;4.60;;;2.63;;
75216;SDS011;63800;51.972;5.682;2022-12-26T17:06:40;10.00;;;3.90;;
75216;SDS011;63800;51.972;5.682;2022-12-26T17:09:25;8.15;;;3.50;;
75216;SDS011;63800;51.972;5.682;2022-12-26T17:12:03;5.70;;;3.90;;
75216;SDS011;63800;51.972;5.682;2022-12-26T17:14:35;9.98;;;4.97;;
75216;SDS011;63800;51.972;5.682;2022-12-26T17:17:07;6.68;;;3.97;;
75216;SDS011;63800;51.972;5.682;2022-12-26T17:19:54;9.98;;;4.05;;
75216;SDS011;63800;51.972;5.682;2022-12-26T17:27:42;9.75;;;4.53;;
75216;SDS011;63800;51.972;5.682;2022-12-26T17:32:49;7.65;;;3.75;;
75216;SDS011;63800;51.972;5.682;2022-12-26T17:35:18;7.65;;;4.05;;
75216;SDS011;63800;51.972;5.682;2022-12-26T17:42:45;7.45;;;4.05;;
75216;SDS011;63800;51.972;5.682;2022-12-26T17:45:29;7.60;;;4.65;;
75216;SDS011;63800;51.972;5.682;2022-12-26T17:47:54;7.38;;;4.20;;
75216;SDS011;63800;51.972;5.682;2022-12-26T17:50:22;7.60;;;3.88;;
75216;SDS011;63800;51.972;5.682;2022-12-26T17:52:49;6.93;;;4.15;;
75216;SDS011;63800;51.972;5.682;2022-12-26T17:55:17;7.60;;;4.18;;
75216;SDS011;63800;51.972;5.682;2022-12-26T17:57:48;7.97;;;3.63;;
75216;SDS011;63800;51.972;5.682;2022-12-26T18:00:19;8.82;;;3.95;;
75216;SDS011;63800;51.972;5.682;2022-12-26T18:02:46;9.43;;;4.32;;
75216;SDS011;63800;51.972;5.682;2022-12-26T18:05:12;7.13;;;4.10;;
75216;SDS011;63800;51.972;5.682;2022-12-26T18:07:38;14.68;;;6.03;;
75216;SDS011;63800;51.972;5.682;2022-12-26T18:10:09;11.32;;;4.68;;
75216;SDS011;63800;51.972;5.682;2022-12-26T18:12:42;7.57;;;3.65;;
75216;SDS011;63800;51.972;5.682;2022-12-26T18:15:07;7.95;;;3.63;;
75216;SDS011;63800;51.972;5.682;2022-12-26T18:17:33;8.68;;;3.17;;
75216;SDS011;63800;51.972;5.682;2022-12-26T18:20:00;5.55;;;2.90;;
75216;SDS011;63800;51.972;5.682;2022-12-26T18:22:27;5.32;;;2.65;;
75216;SDS011;63800;51.972;5.682;2022-12-26T18:24:52;8.95;;;2.67;;
75216;SDS011;63800;51.972;5.682;2022-12-26T18:27:30;9.25;;;2.83;;
75216;SDS011;63800;51.972;5.682;2022-12-26T18:29:57;7.57;;;2.33;;
75216;SDS011;63800;51.972;5.682;2022-12-26T18:32:25;5.93;;;2.17;;
75216;SDS011;63800;51.972;5.682;2022-12-26T18:34:52;7.85;;;2.60;;
75216;SDS011;63800;51.972;5.682;2022-12-26T18:37:18;9.52;;;3.33;;
75216;SDS011;63800;51.972;5.682;2022-12-26T18:39:45;11.23;;;3.10;;
75216;SDS011;63800;51.972;5.682;2022-12-26T18:42:11;8.73;;;3.22;;
75216;SDS011;63800;51.972;5.682;2022-12-26T18:44:37;8.23;;;3.58;;
75216;SDS011;63800;51.972;5.682;2022-12-26T18:47:03;6.53;;;2.75;;
75216;SDS011;63800;51.972;5.682;2022-12-26T18:49:30;5.65;;;3.00;;
75216;SDS011;63800;51.972;5.682;2022-12-26T18:51:55;11.02;;;3.05;;
75216;SDS011;63800;51.972;5.682;2022-12-26T18:54:21;9.00;;;3.30;;
75216;SDS011;63800;51.972;5.682;2022-12-26T18:56:46;9.38;;;3.00;;
75216;SDS011;63800;51.972;5.682;2022-12-26T18:59:12;8.10;;;2.53;;
75216;SDS011;63800;51.972;5.682;2022-12-26T19:01:40;11.48;;;3.47;;
75216;SDS011;63800;51.972;5.682;2022-12-26T19:04:05;9.57;;;2.88;;
75216;SDS011;63800;51.972;5.682;2022-12-26T19:06:30;8.38;;;2.80;;
75216;SDS011;63800;51.972;5.682;2022-12-26T19:08:59;7.50;;;3.05;;
75216;SDS011;63800;51.972;5.682;2022-12-26T19:11:24;9.32;;;2.80;;
75216;SDS011;63800;51.972;5.682;2022-12-26T19:13:50;8.80;;;3.60;;
75216;SDS011;63800;51.972;5.682;2022-12-26T19:16:16;8.70;;;3.75;;
75216;SDS011;63800;51.972;5.682;2022-12-26T19:18:41;12.05;;;4.13;;